Overview Statistics Trail Chart Weather Telemetry Raw packets
 

This is the latest recevied weather packets stored in our database for station/object SV9TNF-52. If no packets are shown the sender has not sent any weather packets the latest 10 day(s).

<< 49 50 51 52 53 54 55 >>
Time Temp. Humidity Pressure Rain* Wind** Luminosity Snow
1788331118 31.67° C 52% 1020.3 hPa 0 mm 1.79 m/s, 234° - -
1788330818 31.67° C 51% 1020 hPa 0 mm 0 m/s - -
1788330518 31.67° C 50% 1020 hPa 0 mm 1.34 m/s, 253° - -
1788330217 30.56° C 50% 1020.3 hPa 0 mm 3.13 m/s, 264° - -
1788329917 30.56° C 51% 1020.3 hPa 0 mm 2.24 m/s, 258° - -
1788329618 30.56° C 48% 1020.3 hPa 0 mm 1.34 m/s, 290° - -
1788329317 30° C 46% 1020.3 hPa 0 mm 1.79 m/s, 273° - -
1788329017 30° C 46% 1020.3 hPa 0 mm 0.89 m/s, 249° - -
1788328717 29.44° C 47% 1020.3 hPa 0 mm 1.79 m/s, 252° - -
1788328417 29.44° C 45% 1020.3 hPa 0 mm 2.24 m/s, 251° - -
1788328117 29.44° C 45% 1020.3 hPa 0 mm 0.45 m/s, 267° - -
1788327817 28.89° C 47% 1020.3 hPa 0 mm 2.24 m/s, 285° - -
1788327528 28.33° C 47% 1020.3 hPa 0 mm 0 m/s - -
1788327217 27.78° C 48% 1020 hPa 0 mm 2.24 m/s, 250° - -
1788326917 27.78° C 50% 1020 hPa 0 mm 0 m/s - -
1788326616 26.67° C 51% 1020 hPa 0 mm 1.79 m/s, 232° - -
1788326316 26.11° C 53% 1020 hPa 0 mm 1.34 m/s, 209° - -
1788326016 25.56° C 54% 1020 hPa 0 mm 1.34 m/s, 170° - -
1788325716 25° C 55% 1020 hPa 0 mm 2.68 m/s, 182° - -
1788325416 24.44° C 55% 1020 hPa 0 mm 3.13 m/s, 249° - -
1788325116 23.89° C 58% 1020 hPa 0 mm 1.79 m/s, 225° - -
1788324816 23.33° C 59% 1020 hPa 0 mm 4.47 m/s, 220° - -
1788324516 23.33° C 59% 1020 hPa 0 mm 6.71 m/s, 238° - -
1788324216 22.78° C 60% 1020 hPa 0 mm 5.36 m/s, 202° - -
1788323915 22.22° C 62% 1020 hPa 0 mm 6.26 m/s, 225° - -

* Rain latest hour (hover to see other rain measurements)
** Current wind speed in m/s (hover to see current wind gust speed)